Time;durP1;ratioP1;P1;durP2;ratioP2;P2;SDS_P1;SDS_P2;PMS_P1;PMS_P2;Temp;Humidity;BMP_temperature;BMP_pressure;BME280_temperature;BME280_humidity;BME280_pressure;Samples;Min_cycle;Max_cycle;Signal;HPM_P1;HPM_P2
2023/08/26 00:00:31;;;;;;;2.58;1.05;;;16.60;99.90;;;;;;4982157;28;20503;-70
2023/08/26 00:02:56;;;;;;;2.35;1.30;;;16.60;99.90;;;;;;4925099;28;20135;-74
2023/08/26 00:05:22;;;;;;;3.03;1.38;;;16.60;99.90;;;;;;4985711;28;20031;-71
2023/08/26 00:07:48;;;;;;;3.22;0.80;;;16.60;99.90;;;;;;4974976;28;20059;-70
2023/08/26 00:10:13;;;;;;;2.35;1.05;;;16.60;99.90;;;;;;4979996;28;20398;-70
2023/08/26 00:12:39;;;;;;;3.20;1.20;;;16.50;99.90;;;;;;4919210;28;20040;-70
2023/08/26 00:15:05;;;;;;;4.45;1.27;;;16.50;99.90;;;;;;4989733;28;20039;-72
2023/08/26 00:17:32;;;;;;;3.45;0.98;;;16.50;99.90;;;;;;4982077;28;20090;-71
2023/08/26 00:19:57;;;;;;;4.18;1.25;;;16.50;99.90;;;;;;4924681;28;20039;-71
2023/08/26 00:22:23;;;;;;;6.65;2.13;;;16.60;99.90;;;;;;4917750;28;20036;-71
2023/08/26 00:24:49;;;;;;;3.83;1.48;;;16.60;99.90;;;;;;4990629;28;20039;-70
2023/08/26 00:27:14;;;;;;;1.95;0.93;;;16.60;99.90;;;;;;4978157;28;20050;-72
2023/08/26 00:29:40;;;;;;;3.15;1.30;;;16.70;99.90;;;;;;4982529;28;20075;-72
2023/08/26 00:32:06;;;;;;;5.22;1.65;;;16.70;99.90;;;;;;4921414;28;20410;-70
2023/08/26 00:34:32;;;;;;;4.18;1.30;;;16.80;99.90;;;;;;4985591;28;20047;-72
2023/08/26 00:36:57;;;;;;;5.45;1.52;;;16.80;99.90;;;;;;4992205;28;20102;-71
2023/08/26 00:39:23;;;;;;;3.20;1.58;;;16.70;99.90;;;;;;4925041;28;20048;-73
2023/08/26 00:41:48;;;;;;;2.75;1.30;;;16.70;99.90;;;;;;4931856;28;20032;-71
2023/08/26 00:44:14;;;;;;;2.63;1.35;;;16.80;99.90;;;;;;4920467;28;20040;-71
2023/08/26 00:46:39;;;;;;;3.60;1.55;;;16.70;99.90;;;;;;4988752;28;20566;-71
2023/08/26 00:49:06;;;;;;;4.88;1.35;;;16.80;99.90;;;;;;4985046;28;20156;-71
2023/08/26 00:51:32;;;;;;;4.65;1.45;;;16.80;99.90;;;;;;4931873;28;20058;-72
2023/08/26 00:53:58;;;;;;;3.42;1.00;;;16.80;99.90;;;;;;4988626;28;20488;-72
2023/08/26 00:56:24;;;;;;;6.00;1.40;;;16.80;99.90;;;;;;4920693;28;20035;-70
2023/08/26 00:58:50;;;;;;;5.90;1.55;;;16.80;99.90;;;;;;4987752;28;20033;-72
2023/08/26 01:01:17;;;;;;;7.00;1.55;;;16.80;99.90;;;;;;4985687;28;20484;-70
2023/08/26 01:03:42;;;;;;;5.65;1.63;;;16.80;99.90;;;;;;5013302;28;20040;-70
2023/08/26 01:06:08;;;;;;;3.67;1.98;;;16.80;99.90;;;;;;4919922;28;20051;-71
2023/08/26 01:08:34;;;;;;;3.25;1.60;;;16.80;99.90;;;;;;4918811;28;20136;-71
2023/08/26 01:11:29;;;;;;;4.00;1.98;;;16.80;99.90;;;;;;4916134;28;20519;-70
2023/08/26 01:14:37;;;;;;;4.97;1.58;;;16.90;99.90;;;;;;4922888;28;20067;-71
2023/08/26 01:17:07;;;;;;;3.97;1.75;;;16.90;99.90;;;;;;4984913;28;20408;-72
2023/08/26 01:19:37;;;;;;;5.93;2.50;;;16.90;99.90;;;;;;4988989;28;20032;-70
2023/08/26 01:22:06;;;;;;;8.43;2.35;;;16.90;99.90;;;;;;4942544;28;20066;-72
2023/08/26 01:24:34;;;;;;;4.18;1.77;;;16.90;99.90;;;;;;4985902;28;20044;-71
2023/08/26 01:27:00;;;;;;;2.88;1.45;;;16.90;99.90;;;;;;4915818;28;20404;-71
2023/08/26 01:29:26;;;;;;;4.30;1.75;;;16.80;99.90;;;;;;4985604;28;20039;-71
2023/08/26 01:32:16;;;;;;;6.85;2.05;;;16.70;99.90;;;;;;4984063;28;20043;-72
2023/08/26 01:34:46;;;;;;;4.85;2.00;;;16.60;99.90;;;;;;4991263;28;20047;-71
2023/08/26 01:37:13;;;;;;;5.65;1.92;;;16.60;99.90;;;;;;4981720;28;20082;-71
2023/08/26 01:39:40;;;;;;;5.63;1.98;;;16.60;99.90;;;;;;4921960;28;20035;-73
2023/08/26 01:42:07;;;;;;;6.15;2.13;;;16.50;99.90;;;;;;4923034;28;20051;-72
2023/08/26 01:44:33;;;;;;;7.22;2.45;;;16.50;99.90;;;;;;4990967;28;20123;-72
2023/08/26 01:46:59;;;;;;;4.30;1.92;;;16.50;99.90;;;;;;4918523;28;20110;-73
2023/08/26 01:49:24;;;;;;;9.02;1.50;;;16.50;99.90;;;;;;4989038;28;20399;-72
2023/08/26 01:51:50;;;;;;;7.68;1.70;;;16.40;99.90;;;;;;4986901;28;20028;-72
2023/08/26 01:54:15;;;;;;;7.88;2.22;;;16.40;99.90;;;;;;4924484;28;20098;-71
2023/08/26 01:56:41;;;;;;;5.05;1.40;;;16.40;99.90;;;;;;4983754;28;21766;-71
2023/08/26 01:59:06;;;;;;;7.00;1.55;;;16.40;99.90;;;;;;4930637;28;20036;-71
2023/08/26 02:01:34;;;;;;;3.80;1.52;;;16.40;99.90;;;;;;4988270;28;20044;-72
2023/08/26 02:04:00;;;;;;;7.60;1.85;;;16.40;99.90;;;;;;4990175;28;20048;-70
2023/08/26 02:06:26;;;;;;;6.50;1.50;;;16.40;99.90;;;;;;4992900;28;20087;-72
2023/08/26 02:08:53;;;;;;;7.82;1.67;;;16.40;99.90;;;;;;4916665;28;20491;-71
2023/08/26 02:11:19;;;;;;;4.68;1.70;;;16.40;99.90;;;;;;4939129;28;20063;-72
2023/08/26 02:13:44;;;;;;;3.33;1.60;;;16.40;99.90;;;;;;4967179;28;20059;-71
2023/08/26 02:16:10;;;;;;;3.30;2.03;;;16.40;99.90;;;;;;4919192;28;20040;-71
2023/08/26 02:18:35;;;;;;;14.63;1.75;;;16.40;99.90;;;;;;4922687;28;20127;-71
2023/08/26 02:21:01;;;;;;;6.97;1.38;;;16.40;99.90;;;;;;4964540;28;20377;-71
2023/08/26 02:23:26;;;;;;;15.80;2.20;;;16.40;99.90;;;;;;4919693;28;20106;-70
2023/08/26 02:25:52;;;;;;;7.43;1.92;;;16.30;99.90;;;;;;4919626;28;20032;-71
2023/08/26 02:28:17;;;;;;;7.10;1.60;;;16.30;99.90;;;;;;4911649;28;20040;-70
2023/08/26 02:30:43;;;;;;;5.00;1.73;;;16.30;99.90;;;;;;4915257;28;20040;-71
2023/08/26 02:33:09;;;;;;;10.30;2.78;;;16.30;99.90;;;;;;4919536;28;20153;-72
2023/08/26 02:35:35;;;;;;;7.57;2.03;;;16.20;99.90;;;;;;4921803;28;20672;-71
2023/08/26 02:38:01;;;;;;;5.32;1.40;;;16.20;99.90;;;;;;4986952;28;20085;-72
2023/08/26 02:40:26;;;;;;;6.03;1.58;;;16.20;99.90;;;;;;4926804;28;20043;-71
2023/08/26 02:42:52;;;;;;;5.82;1.67;;;16.10;99.90;;;;;;4926460;28;20086;-71
2023/08/26 02:45:18;;;;;;;5.03;1.50;;;16.00;99.90;;;;;;4995250;28;20038;-71
2023/08/26 02:47:43;;;;;;;5.32;1.60;;;16.00;99.90;;;;;;4919038;28;20055;-73
2023/08/26 02:50:09;;;;;;;9.75;2.80;;;15.90;99.90;;;;;;4911008;28;20090;-71
2023/08/26 02:52:35;;;;;;;4.90;1.77;;;15.90;99.90;;;;;;4990225;28;20028;-71
2023/08/26 02:55:00;;;;;;;2.88;1.60;;;15.90;99.90;;;;;;4930119;28;20032;-71
2023/08/26 02:57:26;;;;;;;5.53;1.80;;;15.80;99.90;;;;;;4993104;28;20042;-72
2023/08/26 02:59:51;;;;;;;7.07;1.75;;;15.80;99.90;;;;;;4925138;28;20048;-70
2023/08/26 03:02:19;;;;;;;6.80;1.83;;;15.80;99.90;;;;;;4918688;28;20046;-71
2023/08/26 03:04:45;;;;;;;8.25;1.50;;;15.80;99.90;;;;;;4994623;28;20078;-71
2023/08/26 03:07:11;;;;;;;5.45;2.03;;;15.80;99.90;;;;;;4921608;28;20040;-71
2023/08/26 03:09:36;;;;;;;6.93;1.55;;;15.80;99.90;;;;;;4926225;28;20116;-72
2023/08/26 03:12:02;;;;;;;8.00;1.50;;;15.80;99.90;;;;;;4982077;28;20034;-71
2023/08/26 03:14:28;;;;;;;7.20;1.77;;;15.80;99.90;;;;;;4918277;28;20549;-70
2023/08/26 03:16:53;;;;;;;4.53;1.73;;;15.80;99.90;;;;;;4918080;28;20040;-71
2023/08/26 03:19:19;;;;;;;10.93;2.03;;;15.80;99.90;;;;;;4937256;28;20035;-71
2023/08/26 03:21:45;;;;;;;6.55;1.70;;;15.80;99.90;;;;;;4990442;28;20093;-71
2023/08/26 03:24:17;;;;;;;13.73;3.17;;;15.80;99.90;;;;;;4986342;28;20039;-72
2023/08/26 03:26:44;;;;;;;6.80;2.10;;;15.80;99.90;;;;;;4990501;28;20070;-72
2023/08/26 03:29:09;;;;;;;2.63;1.40;;;15.80;99.90;;;;;;4921394;28;20043;-73
2023/08/26 03:31:35;;;;;;;6.90;1.95;;;15.80;99.90;;;;;;4975992;28;20043;-72
2023/08/26 03:34:01;;;;;;;4.20;1.60;;;15.80;99.90;;;;;;4984456;28;20450;-71
2023/08/26 03:36:26;;;;;;;6.75;1.73;;;15.80;99.90;;;;;;4917927;28;20040;-70
2023/08/26 03:38:52;;;;;;;6.82;1.95;;;15.80;99.90;;;;;;4920410;28;20036;-72
2023/08/26 03:41:17;;;;;;;5.15;1.27;;;15.80;99.90;;;;;;4928150;28;20498;-72
2023/08/26 03:43:43;;;;;;;8.52;2.40;;;15.80;99.90;;;;;;4929464;28;20048;-72
2023/08/26 03:46:08;;;;;;;10.13;1.65;;;15.90;99.90;;;;;;5010239;28;20065;-70
2023/08/26 03:48:34;;;;;;;3.47;1.50;;;15.80;99.90;;;;;;4990322;28;20035;-70
2023/08/26 03:51:00;;;;;;;8.23;2.22;;;15.80;99.90;;;;;;4987372;28;20032;-71
2023/08/26 03:53:27;;;;;;;6.47;2.10;;;15.80;99.90;;;;;;5007972;28;20044;-71
2023/08/26 03:55:52;;;;;;;4.22;1.83;;;15.80;99.90;;;;;;4922092;28;20115;-71
2023/08/26 03:58:18;;;;;;;4.38;2.08;;;15.80;99.90;;;;;;4973339;28;20123;-70
2023/08/26 04:00:44;;;;;;;6.13;1.80;;;15.80;99.90;;;;;;4946165;28;20372;-71
2023/08/26 04:03:10;;;;;;;5.32;1.60;;;15.80;99.90;;;;;;4978645;28;20074;-72
2023/08/26 04:05:36;;;;;;;4.35;1.60;;;15.80;99.90;;;;;;4981352;28;20126;-72
2023/08/26 04:08:02;;;;;;;7.50;2.35;;;15.70;99.90;;;;;;4981123;28;20111;-72
2023/08/26 04:10:28;;;;;;;7.80;1.90;;;15.70;99.90;;;;;;4922938;28;20166;-71
2023/08/26 04:12:57;;;;;;;5.10;1.48;;;15.70;99.90;;;;;;4986403;28;20118;-71
2023/08/26 04:15:22;;;;;;;6.30;1.60;;;15.70;99.90;;;;;;4983053;28;20063;-71
2023/08/26 04:17:48;;;;;;;6.35;1.45;;;15.70;99.90;;;;;;4919933;28;20036;-71
2023/08/26 04:20:13;;;;;;;5.03;1.35;;;15.70;99.90;;;;;;4982407;28;20081;-70
2023/08/26 04:22:39;;;;;;;3.05;1.30;;;15.70;99.90;;;;;;4986694;28;20047;-70
2023/08/26 04:25:05;;;;;;;4.30;1.60;;;15.70;99.90;;;;;;4988939;28;20036;-71
2023/08/26 04:27:33;;;;;;;6.68;1.40;;;15.70;99.90;;;;;;4924429;28;20119;-71
2023/08/26 04:29:59;;;;;;;4.40;1.35;;;15.70;99.90;;;;;;4988622;28;20120;-74
2023/08/26 04:32:25;;;;;;;5.20;1.35;;;15.70;99.90;;;;;;4988267;28;20122;-71
2023/08/26 04:34:51;;;;;;;10.80;1.17;;;15.70;99.90;;;;;;4918142;28;20040;-72
2023/08/26 04:37:20;;;;;;;7.60;1.63;;;15.60;99.90;;;;;;4928157;28;20158;-71
2023/08/26 04:39:46;;;;;;;5.65;1.40;;;15.60;99.90;;;;;;4915895;28;20566;-71
2023/08/26 04:42:12;;;;;;;11.23;1.80;;;15.60;99.90;;;;;;4990227;28;20028;-70
2023/08/26 04:44:37;;;;;;;5.38;1.30;;;15.60;99.90;;;;;;4920945;28;20051;-70
2023/08/26 04:47:03;;;;;;;5.97;1.40;;;15.50;99.90;;;;;;4988578;28;20028;-71
2023/08/26 04:49:29;;;;;;;6.53;1.95;;;15.50;99.90;;;;;;4922379;28;20038;-70
2023/08/26 04:51:54;;;;;;;4.57;1.33;;;15.50;99.90;;;;;;4985677;28;20071;-71
2023/08/26 04:54:21;;;;;;;5.00;1.80;;;15.40;99.90;;;;;;4987202;28;20051;-71
2023/08/26 04:56:47;;;;;;;4.40;1.23;;;15.40;99.90;;;;;;4923464;28;20123;-71
2023/08/26 04:59:12;;;;;;;7.07;2.13;;;15.30;99.90;;;;;;4926077;28;20127;-70
2023/08/26 05:01:38;;;;;;;7.20;1.95;;;15.30;99.90;;;;;;4927372;28;20050;-73
2023/08/26 05:04:04;;;;;;;7.38;2.70;;;15.20;99.90;;;;;;4990246;28;20028;-71
2023/08/26 05:06:30;;;;;;;6.20;1.60;;;15.20;99.90;;;;;;4923133;28;20043;-71
2023/08/26 05:08:55;;;;;;;4.93;1.90;;;15.10;99.90;;;;;;4923763;28;20404;-71
2023/08/26 05:11:21;;;;;;;5.05;1.60;;;15.10;99.90;;;;;;4919481;28;20108;-71
2023/08/26 05:13:46;;;;;;;4.55;1.48;;;15.00;99.90;;;;;;4923767;28;20043;-71
2023/08/26 05:16:12;;;;;;;3.97;1.40;;;15.00;99.90;;;;;;4992325;28;20040;-71
2023/08/26 05:18:38;;;;;;;4.57;1.92;;;15.00;99.90;;;;;;4981439;28;20102;-71
2023/08/26 05:21:03;;;;;;;6.28;1.60;;;14.90;99.90;;;;;;4926038;28;20047;-70
2023/08/26 05:23:29;;;;;;;7.00;1.75;;;14.90;99.90;;;;;;4990277;28;20515;-71
2023/08/26 05:25:54;;;;;;;5.35;1.55;;;14.90;99.90;;;;;;4916132;28;20051;-71
2023/08/26 05:28:20;;;;;;;8.82;1.35;;;14.90;99.90;;;;;;4923736;28;20059;-71
2023/08/26 05:30:45;;;;;;;14.57;1.63;;;14.90;99.90;;;;;;4980841;28;20071;-70
2023/08/26 05:33:11;;;;;;;3.20;1.00;;;14.90;99.90;;;;;;4916111;28;20056;-70
2023/08/26 05:35:36;;;;;;;3.63;1.40;;;14.90;99.90;;;;;;4985353;28;20098;-70
2023/08/26 05:38:02;;;;;;;8.57;2.00;;;14.90;99.90;;;;;;4915993;28;20043;-73
2023/08/26 05:40:29;;;;;;;8.45;1.73;;;14.90;99.90;;;;;;4928401;28;20063;-70
2023/08/26 05:42:57;;;;;;;12.35;1.63;;;14.90;99.90;;;;;;5012548;28;20060;-70
2023/08/26 05:45:24;;;;;;;6.03;1.30;;;15.00;99.90;;;;;;4913467;28;20115;-72
2023/08/26 05:47:51;;;;;;;4.97;1.30;;;15.00;99.90;;;;;;4912188;28;20032;-71
2023/08/26 05:50:17;;;;;;;7.07;1.40;;;15.00;99.90;;;;;;4988914;28;20043;-71
2023/08/26 05:52:42;;;;;;;11.98;1.58;;;15.10;99.90;;;;;;4980780;28;20052;-71
2023/08/26 05:55:09;;;;;;;5.55;1.35;;;15.10;99.90;;;;;;4995964;28;20487;-70
2023/08/26 05:57:35;;;;;;;4.18;1.17;;;15.20;99.90;;;;;;4982369;28;20036;-71
2023/08/26 06:00:01;;;;;;;3.70;1.23;;;15.20;99.90;;;;;;4928423;28;20050;-72
2023/08/26 06:02:26;;;;;;;3.80;1.55;;;15.30;99.90;;;;;;4923282;28;20396;-71
2023/08/26 06:04:52;;;;;;;6.35;1.92;;;15.40;99.90;;;;;;4979766;28;20111;-72
2023/08/26 06:07:18;;;;;;;5.93;1.50;;;15.40;99.90;;;;;;4981989;28;20063;-72
2023/08/26 06:09:44;;;;;;;5.75;1.65;;;15.40;99.90;;;;;;4984264;28;20035;-71
2023/08/26 06:12:09;;;;;;;7.88;1.67;;;15.50;99.90;;;;;;4980573;28;20078;-72
2023/08/26 06:14:35;;;;;;;6.43;1.25;;;15.60;99.90;;;;;;4988227;28;20040;-71
2023/08/26 06:17:00;;;;;;;10.20;1.27;;;15.70;99.90;;;;;;4921856;28;20055;-72
2023/08/26 06:19:26;;;;;;;2.88;1.50;;;15.70;99.90;;;;;;4972187;28;20048;-71
2023/08/26 06:21:52;;;;;;;10.05;2.03;;;15.80;99.90;;;;;;4977890;28;20127;-72
2023/08/26 06:24:17;;;;;;;4.47;1.63;;;15.90;99.90;;;;;;4918355;28;20032;-71
2023/08/26 06:26:44;;;;;;;2.78;1.35;;;15.90;99.90;;;;;;4979453;28;20044;-71
2023/08/26 06:29:13;;;;;;;9.25;1.48;;;16.10;99.90;;;;;;4919058;28;20044;-72
2023/08/26 06:31:38;;;;;;;4.70;1.30;;;16.30;99.90;;;;;;4988095;28;20040;-71
2023/08/26 06:34:04;;;;;;;3.67;1.08;;;16.70;99.90;;;;;;4921419;28;20040;-72
2023/08/26 06:36:29;;;;;;;6.32;1.38;;;17.20;99.90;;;;;;4922213;28;20069;-72
2023/08/26 06:38:55;;;;;;;4.97;1.20;;;17.80;99.90;;;;;;4981866;28;20063;-71
2023/08/26 06:41:21;;;;;;;6.53;1.27;;;18.50;99.90;;;;;;4919612;28;20046;-72
2023/08/26 06:43:46;;;;;;;5.35;1.42;;;19.20;99.90;;;;;;4918460;28;20036;-72
2023/08/26 06:46:12;;;;;;;4.40;0.93;;;19.80;99.90;;;;;;4983022;28;20103;-72
2023/08/26 06:48:38;;;;;;;12.65;1.38;;;20.40;99.90;;;;;;4927247;28;20499;-72
2023/08/26 06:51:03;;;;;;;2.72;0.70;;;21.00;99.90;;;;;;5002611;28;20433;-72
2023/08/26 06:53:29;;;;;;;4.95;1.08;;;21.50;99.90;;;;;;4987825;28;20037;-71
2023/08/26 06:55:55;;;;;;;2.28;0.90;;;22.00;99.90;;;;;;4914815;28;20102;-70
2023/08/26 06:58:23;;;;;;;4.95;1.83;;;22.50;99.90;;;;;;4965940;28;20439;-72
2023/08/26 07:00:49;;;;;;;2.35;0.95;;;22.90;99.90;;;;;;4920094;28;20050;-72
2023/08/26 07:03:14;;;;;;;2.47;1.08;;;23.00;99.90;;;;;;4919817;28;20319;-72
2023/08/26 07:05:44;;;;;;;10.73;1.63;;;22.60;99.90;;;;;;4981118;28;20047;-73
2023/08/26 07:08:10;;;;;;;7.50;1.83;;;22.20;99.90;;;;;;4914938;28;20039;-72
2023/08/26 07:10:35;;;;;;;3.13;1.33;;;21.60;99.90;;;;;;5002765;28;20039;-72
2023/08/26 07:13:01;;;;;;;6.25;1.20;;;21.10;99.90;;;;;;4932680;28;20123;-73
2023/08/26 07:15:26;;;;;;;5.18;1.38;;;20.60;99.90;;;;;;4914612;28;20047;-70
2023/08/26 07:17:54;;;;;;;3.05;1.30;;;20.30;99.90;;;;;;4971929;28;20046;-72
2023/08/26 07:20:19;;;;;;;4.68;1.08;;;19.90;99.90;;;;;;4987352;28;20041;-72
2023/08/26 07:22:46;;;;;;;2.75;1.20;;;19.60;99.90;;;;;;4993466;28;20059;-73
2023/08/26 07:25:12;;;;;;;3.67;1.10;;;19.30;99.90;;;;;;4998126;28;20036;-70
2023/08/26 07:27:38;;;;;;;3.03;0.85;;;19.20;99.90;;;;;;4912868;28;20408;-72
2023/08/26 07:30:04;;;;;;;2.13;0.90;;;19.10;99.90;;;;;;4992103;28;20063;-71
2023/08/26 07:32:30;;;;;;;3.90;0.85;;;19.10;99.90;;;;;;4939140;28;20043;-72
2023/08/26 07:34:56;;;;;;;4.38;0.95;;;19.00;99.90;;;;;;4989076;28;20066;-71
2023/08/26 07:37:21;;;;;;;3.85;1.10;;;18.90;99.90;;;;;;4913867;28;20043;-72
2023/08/26 07:39:49;;;;;;;3.85;0.90;;;18.80;99.90;;;;;;4909851;28;20055;-71
2023/08/26 07:42:15;;;;;;;3.45;1.25;;;18.70;99.90;;;;;;4923027;28;20063;-71
2023/08/26 07:44:41;;;;;;;3.78;1.05;;;18.60;99.90;;;;;;4989173;28;20032;-72
2023/08/26 07:47:06;;;;;;;8.20;1.23;;;18.50;99.90;;;;;;4928748;28;20044;-71
2023/08/26 07:49:32;;;;;;;6.03;1.73;;;18.40;99.90;;;;;;4917105;28;20400;-71
2023/08/26 07:51:58;;;;;;;3.42;1.05;;;18.40;99.90;;;;;;4920240;28;20264;-71
2023/08/26 07:54:24;;;;;;;4.40;0.70;;;18.40;99.90;;;;;;4980957;28;20376;-71
2023/08/26 07:56:49;;;;;;;1.90;1.10;;;18.40;99.90;;;;;;4916263;28;20079;-70
2023/08/26 07:59:15;;;;;;;2.13;0.73;;;18.40;99.90;;;;;;4965770;28;20032;-72
2023/08/26 08:01:40;;;;;;;3.70;0.60;;;18.40;99.90;;;;;;4918175;28;20044;-71
2023/08/26 08:04:06;;;;;;;3.33;0.50;;;18.30;99.90;;;;;;4979990;28;20039;-72
2023/08/26 08:06:31;;;;;;;2.78;0.60;;;18.20;99.90;;;;;;4916779;28;20640;-70
2023/08/26 08:08:57;;;;;;;5.30;0.88;;;18.30;99.90;;;;;;4940222;28;20499;-72
2023/08/26 08:11:22;;;;;;;2.15;0.47;;;18.40;99.90;;;;;;4932485;28;20070;-72
2023/08/26 08:13:48;;;;;;;3.03;0.63;;;18.50;99.90;;;;;;4932879;28;20039;-70
2023/08/26 08:16:14;;;;;;;4.68;0.68;;;18.60;99.90;;;;;;4929417;28;20676;-71
2023/08/26 08:18:39;;;;;;;3.17;0.75;;;18.70;99.90;;;;;;4972177;28;20043;-72
2023/08/26 08:21:05;;;;;;;2.75;0.57;;;18.80;99.90;;;;;;4922982;28;20044;-71
2023/08/26 08:23:31;;;;;;;3.50;0.63;;;18.80;99.90;;;;;;4981392;28;20040;-71
2023/08/26 08:25:56;;;;;;;2.25;0.63;;;18.80;99.90;;;;;;4921069;28;20420;-70
2023/08/26 08:28:22;;;;;;;1.63;0.60;;;18.90;99.90;;;;;;4923796;28;20028;-72
2023/08/26 08:30:48;;;;;;;2.85;1.25;;;18.90;99.90;;;;;;4919577;28;20056;-70
2023/08/26 08:33:14;;;;;;;3.33;0.95;;;19.20;99.90;;;;;;4917564;28;20048;-73
2023/08/26 08:35:39;;;;;;;3.33;0.60;;;19.40;99.90;;;;;;4918139;28;20119;-74
2023/08/26 08:38:05;;;;;;;2.80;0.80;;;19.50;99.90;;;;;;4984199;28;20132;-72
2023/08/26 08:40:30;;;;;;;3.40;0.90;;;19.60;99.90;;;;;;4919394;28;20044;-70
2023/08/26 08:42:58;;;;;;;2.00;0.70;;;19.70;99.90;;;;;;4923638;28;20128;-72
2023/08/26 08:45:25;;;;;;;3.92;1.85;;;19.50;99.90;;;;;;4916346;28;20655;-72
2023/08/26 08:47:53;;;;;;;2.65;0.70;;;19.60;99.90;;;;;;4985079;28;20028;-70
2023/08/26 08:50:20;;;;;;;2.03;0.68;;;19.80;99.90;;;;;;4983893;28;20036;-70
2023/08/26 08:52:48;;;;;;;1.55;0.70;;;20.10;99.90;;;;;;4916917;28;20090;-73
2023/08/26 08:55:14;;;;;;;3.50;0.77;;;20.30;99.90;;;;;;4921788;28;20031;-71
2023/08/26 08:57:42;;;;;;;1.52;0.50;;;20.30;99.90;;;;;;4987112;28;20147;-72
2023/08/26 09:00:08;;;;;;;3.83;0.98;;;20.30;99.90;;;;;;4985708;28;20126;-72
2023/08/26 09:02:42;;;;;;;1.15;0.70;;;20.40;99.90;;;;;;4986681;28;20118;-71
2023/08/26 09:05:08;;;;;;;1.92;0.80;;;20.50;99.90;;;;;;4986499;28;20119;-70
2023/08/26 09:07:36;;;;;;;3.22;1.05;;;20.50;99.90;;;;;;4920519;28;20082;-70
2023/08/26 09:10:02;;;;;;;3.38;1.40;;;20.60;99.90;;;;;;4985877;28;20059;-70
2023/08/26 09:12:29;;;;;;;4.63;0.98;;;20.60;99.90;;;;;;4984477;28;20079;-71
2023/08/26 09:14:55;;;;;;;4.53;0.77;;;20.40;99.90;;;;;;4914387;28;20064;-71
2023/08/26 09:17:21;;;;;;;1.98;0.75;;;20.20;99.90;;;;;;4985443;28;20075;-72
2023/08/26 09:19:59;;;;;;;2.53;1.00;;;20.30;99.90;;;;;;4983505;28;20051;-70
2023/08/26 09:22:27;;;;;;;3.58;0.88;;;20.50;99.90;;;;;;4983885;28;20047;-71
2023/08/26 09:24:57;;;;;;;2.30;0.90;;;20.60;99.90;;;;;;4926217;28;20036;-71
2023/08/26 09:27:23;;;;;;;5.60;1.40;;;20.60;99.90;;;;;;4921454;28;20055;-72
2023/08/26 09:29:49;;;;;;;2.38;0.77;;;20.70;99.90;;;;;;4986643;28;20035;-71
2023/08/26 09:32:15;;;;;;;2.30;1.00;;;20.70;99.90;;;;;;4984089;28;20028;-72
2023/08/26 09:34:40;;;;;;;3.35;1.58;;;20.70;99.90;;;;;;4920094;28;20048;-74
2023/08/26 09:37:09;;;;;;;3.28;1.48;;;20.70;99.90;;;;;;4985399;28;20039;-71
2023/08/26 09:39:45;;;;;;;1.35;0.93;;;20.60;99.90;;;;;;4923272;28;20059;-71
2023/08/26 09:42:11;;;;;;;1.85;0.75;;;20.60;99.90;;;;;;4915970;28;20542;-78
2023/08/26 09:44:36;;;;;;;3.20;1.17;;;20.60;99.90;;;;;;4987466;28;20040;-71
2023/08/26 09:47:03;;;;;;;1.40;0.90;;;20.60;99.90;;;;;;4917152;28;20043;-71
2023/08/26 09:49:28;;;;;;;2.15;0.80;;;20.80;99.90;;;;;;4987310;28;20464;-72
2023/08/26 09:51:54;;;;;;;2.67;0.60;;;20.90;99.90;;;;;;4920681;28;20025;-72
2023/08/26 09:54:21;;;;;;;1.30;0.60;;;21.00;99.90;;;;;;4918651;28;20128;-71
2023/08/26 09:56:48;;;;;;;2.97;0.90;;;21.00;99.90;;;;;;4923147;28;20024;-71
2023/08/26 09:59:14;;;;;;;1.80;0.50;;;20.90;99.90;;;;;;4925636;28;20029;-72
2023/08/26 10:01:41;;;;;;;2.20;0.40;;;20.90;99.90;;;;;;4985950;28;20054;-71
2023/08/26 10:04:09;;;;;;;1.10;0.50;;;20.80;99.90;;;;;;4921588;28;20036;-69
2023/08/26 10:06:52;;;;;;;1.17;0.32;;;20.70;99.90;;;;;;4983286;28;20044;-68
2023/08/26 10:09:39;;;;;;;2.38;0.80;;;20.90;99.90;;;;;;4922451;28;20043;-68
2023/08/26 10:12:15;;;;;;;2.97;0.55;;;21.00;99.90;;;;;;4915788;28;20051;-68
2023/08/26 10:14:42;;;;;;;3.53;0.65;;;20.90;99.90;;;;;;4987359;28;20395;-69
2023/08/26 10:17:13;;;;;;;2.25;0.57;;;20.80;99.90;;;;;;4985213;28;20071;-68
2023/08/26 10:19:40;;;;;;;4.75;0.60;;;20.70;99.90;;;;;;4984463;28;20126;-68
2023/08/26 10:22:09;;;;;;;2.17;0.70;;;20.70;99.90;;;;;;5010158;28;20037;-68
2023/08/26 10:24:36;;;;;;;3.65;0.80;;;20.60;99.90;;;;;;4981209;28;20040;-68
2023/08/26 10:27:03;;;;;;;1.38;0.50;;;20.50;99.90;;;;;;4919310;28;20040;-69
2023/08/26 10:29:29;;;;;;;3.13;0.80;;;20.50;99.90;;;;;;4920968;28;20035;-68
2023/08/26 10:31:55;;;;;;;2.42;0.80;;;20.30;99.90;;;;;;4918344;28;20120;-68
2023/08/26 10:34:29;;;;;;;2.88;0.90;;;20.00;99.90;;;;;;4920028;28;20131;-68
2023/08/26 10:36:56;;;;;;;4.93;0.90;;;19.80;99.90;;;;;;4982706;28;20036;-69
2023/08/26 10:39:24;;;;;;;2.22;0.70;;;19.60;99.90;;;;;;4983990;28;20032;-70
2023/08/26 10:42:10;;;;;;;3.00;0.60;;;19.50;99.90;;;;;;4981453;28;20094;-69
2023/08/26 10:44:40;;;;;;;1.75;0.60;;;19.30;99.90;;;;;;4993251;28;20527;-69
2023/08/26 10:47:06;;;;;;;;;;;19.30;99.90;;;;;;4918535;28;20043;-68
2023/08/26 10:49:33;;;;;;;3.53;0.70;;;19.40;99.90;;;;;;4918985;28;19915;-69
2023/08/26 10:52:14;;;;;;;1.45;0.40;;;19.50;99.90;;;;;;4917394;28;20075;-70
2023/08/26 10:54:45;;;;;;;2.28;1.13;;;19.60;99.90;;;;;;4920415;28;20119;-73
2023/08/26 10:57:11;;;;;;;2.53;0.68;;;19.70;99.90;;;;;;4990767;28;20048;-69
2023/08/26 10:59:41;;;;;;;1.23;0.50;;;19.80;99.90;;;;;;4920485;28;20082;-68
2023/08/26 11:02:09;;;;;;;2.70;0.52;;;20.00;99.90;;;;;;4983245;28;20097;-67
2023/08/26 11:04:42;;;;;;;5.53;1.33;;;20.10;99.90;;;;;;4919023;28;20123;-70
2023/08/26 11:07:18;;;;;;;1.73;0.65;;;20.10;99.90;;;;;;4920160;28;20047;-69
2023/08/26 11:09:44;;;;;;;3.55;0.55;;;20.10;99.90;;;;;;4986300;28;20570;-68
2023/08/26 11:12:27;;;;;;;1.52;0.45;;;20.00;99.90;;;;;;4980483;28;20029;-68
2023/08/26 11:15:02;;;;;;;1.65;0.38;;;19.90;99.90;;;;;;4985147;28;20071;-68
2023/08/26 11:17:28;;;;;;;3.25;1.20;;;19.90;99.90;;;;;;4983535;28;20102;-68
2023/08/26 11:19:54;;;;;;;1.70;0.73;;;20.00;99.90;;;;;;4984484;28;20060;-69
2023/08/26 11:22:25;;;;;;;0.93;0.50;;;20.00;99.90;;;;;;4921030;28;20514;-68
2023/08/26 11:24:50;;;;;;;2.28;0.80;;;20.20;99.90;;;;;;4920947;28;20698;-68
2023/08/26 11:27:16;;;;;;;0.68;0.50;;;20.40;99.90;;;;;;4921957;28;20071;-68
2023/08/26 11:29:42;;;;;;;1.65;0.40;;;20.40;99.90;;;;;;4981359;28;20117;-71
2023/08/26 11:32:08;;;;;;;2.58;0.70;;;20.40;99.90;;;;;;4985229;28;20089;-71
2023/08/26 11:34:34;;;;;;;0.98;0.38;;;20.40;99.90;;;;;;4918893;28;20036;-70
2023/08/26 11:36:59;;;;;;;1.98;0.70;;;20.30;99.90;;;;;;4986807;28;20048;-70
2023/08/26 11:39:35;;;;;;;3.42;0.20;;;20.10;99.90;;;;;;4917891;28;20403;-71
2023/08/26 11:42:13;;;;;;;1.33;0.20;;;20.00;99.90;;;;;;4987984;28;20111;-71
2023/08/26 11:44:38;;;;;;;1.90;1.02;;;19.90;99.90;;;;;;4988415;28;20032;-70
2023/08/26 11:47:05;;;;;;;1.65;0.43;;;19.80;99.90;;;;;;4924270;28;20051;-72
2023/08/26 11:49:32;;;;;;;1.52;0.40;;;19.70;99.90;;;;;;4980037;28;20127;-72
2023/08/26 11:51:59;;;;;;;0.50;0.25;;;19.60;99.90;;;;;;4988843;28;20078;-70
2023/08/26 11:54:25;;;;;;;1.95;0.45;;;19.60;99.90;;;;;;4983365;28;20040;-72
2023/08/26 11:56:51;;;;;;;2.90;0.45;;;19.50;99.90;;;;;;4991751;28;20549;-70
2023/08/26 11:59:21;;;;;;;3.65;1.13;;;19.40;99.90;;;;;;4959173;28;20098;-70
2023/08/26 12:01:46;;;;;;;3.55;0.90;;;19.50;99.90;;;;;;4980458;28;20063;-71
2023/08/26 12:04:16;;;;;;;1.45;0.55;;;19.50;99.90;;;;;;4921674;28;20040;-69
2023/08/26 12:06:42;;;;;;;0.90;0.40;;;19.60;99.90;;;;;;4913267;28;20039;-71
2023/08/26 12:09:08;;;;;;;2.67;0.65;;;19.80;99.90;;;;;;4918257;28;20040;-70
2023/08/26 12:11:37;;;;;;;1.55;0.40;;;19.90;99.90;;;;;;4985098;28;20047;-72
2023/08/26 12:14:19;;;;;;;3.90;0.70;;;20.10;99.90;;;;;;4920682;28;20047;-72
2023/08/26 12:16:45;;;;;;;1.95;0.50;;;20.20;99.90;;;;;;4978374;28;20036;-70
2023/08/26 12:19:18;;;;;;;3.55;0.50;;;20.30;99.90;;;;;;4913070;28;20039;-71
2023/08/26 12:21:50;;;;;;;4.75;1.13;;;20.50;99.90;;;;;;4985709;28;20097;-71
2023/08/26 12:24:25;;;;;;;2.30;0.55;;;20.60;99.90;;;;;;4989482;28;20032;-70
2023/08/26 12:26:52;;;;;;;2.20;0.98;;;20.70;99.90;;;;;;4987130;28;20033;-70
2023/08/26 12:31:49;;;;;;;2.63;0.40;;;20.80;99.90;;;;;;5008079;28;20042;-71
2023/08/26 12:34:15;;;;;;;4.30;0.85;;;20.90;99.90;;;;;;5015461;28;20042;-73
2023/08/26 12:36:43;;;;;;;1.67;0.43;;;21.10;99.90;;;;;;5005861;28;20137;-73
2023/08/26 12:39:08;;;;;;;1.33;0.52;;;21.20;99.90;;;;;;5001781;28;20564;-73
2023/08/26 12:41:34;;;;;;;3.70;0.22;;;21.20;99.90;;;;;;5005401;28;20130;-71
2023/08/26 12:44:00;;;;;;;6.68;1.08;;;21.20;99.90;;;;;;5021177;28;20405;-73
2023/08/26 12:46:26;;;;;;;4.82;0.65;;;21.20;99.90;;;;;;5021264;28;20477;-71